createdAt,value
2022-08-24T00:02:20.590Z,20.26
2022-08-24T00:05:47.974Z,20.22
2022-08-24T00:09:14.945Z,20.20
2022-08-24T00:12:42.405Z,20.16
2022-08-24T00:16:11.712Z,20.12
2022-08-24T00:19:40.077Z,20.11
2022-08-24T00:23:07.882Z,20.08
2022-08-24T00:26:35.660Z,20.06
2022-08-24T00:30:05.118Z,20.01
2022-08-24T00:33:32.566Z,19.97
2022-08-24T00:37:01.673Z,19.94
2022-08-24T00:40:34.068Z,19.88
2022-08-24T00:44:02.941Z,19.82
2022-08-24T00:47:36.362Z,19.75
2022-08-24T00:51:02.597Z,19.67
2022-08-24T00:54:33.593Z,19.60
2022-08-24T00:58:05.193Z,19.57
2022-08-24T01:01:36.471Z,19.52
2022-08-24T01:05:06.343Z,19.49
2022-08-24T01:08:34.557Z,19.46
2022-08-24T01:12:02.291Z,19.46
2022-08-24T01:15:29.607Z,19.44
2022-08-24T01:18:58.610Z,19.44
2022-08-24T01:22:45.988Z,19.45
2022-08-24T01:26:18.500Z,19.48
2022-08-24T01:29:47.314Z,19.49
2022-08-24T01:33:26.341Z,19.51
2022-08-24T01:36:56.485Z,19.53
2022-08-24T01:40:27.631Z,19.55
2022-08-24T01:43:55.382Z,19.55
2022-08-24T01:47:22.861Z,19.56
2022-08-24T01:50:50.621Z,19.57
2022-08-24T01:54:18.927Z,19.57
2022-08-24T01:57:46.264Z,19.56
2022-08-24T02:01:13.628Z,19.57
2022-08-24T02:04:41.087Z,19.56
2022-08-24T02:08:11.733Z,19.55
2022-08-24T02:11:40.753Z,19.53
2022-08-24T02:15:11.946Z,19.54
2022-08-24T02:18:40.676Z,19.54
2022-08-24T02:22:08.567Z,19.52
2022-08-24T02:25:38.345Z,19.49
2022-08-24T02:29:05.644Z,19.46
2022-08-24T02:32:32.590Z,19.44
2022-08-24T02:35:59.499Z,19.40
2022-08-24T02:39:26.899Z,19.38
2022-08-24T02:42:55.036Z,19.37
2022-08-24T02:46:23.935Z,19.36
2022-08-24T02:49:50.951Z,19.34
2022-08-24T02:53:19.646Z,19.30
2022-08-24T02:56:46.708Z,19.27
2022-08-24T03:00:20.047Z,19.23
2022-08-24T03:03:50.792Z,19.23
2022-08-24T03:07:17.536Z,19.24
2022-08-24T03:10:44.708Z,19.28
2022-08-24T03:14:17.529Z,19.31
2022-08-24T03:17:45.050Z,19.34
2022-08-24T03:21:12.277Z,19.38
2022-08-24T03:24:42.592Z,19.42
2022-08-24T03:28:13.495Z,19.46
2022-08-24T03:31:40.532Z,19.51
2022-08-24T03:35:08.830Z,19.56
2022-08-24T03:38:36.333Z,19.60
2022-08-24T03:42:03.457Z,19.64
2022-08-24T03:45:31.541Z,19.67
2022-08-24T03:49:00.762Z,19.71
2022-08-24T03:52:33.439Z,19.71
2022-08-24T03:56:01.866Z,19.75
2022-08-24T03:59:34.332Z,19.78
2022-08-24T04:03:08.250Z,19.77
2022-08-24T04:06:35.037Z,19.75
2022-08-24T04:10:02.070Z,19.77
2022-08-24T04:13:32.283Z,19.79
2022-08-24T04:16:59.436Z,19.81
2022-08-24T04:20:36.132Z,19.80
2022-08-24T04:24:06.150Z,19.76
2022-08-24T04:27:34.011Z,19.76
2022-08-24T04:31:02.000Z,19.77
2022-08-24T04:34:35.405Z,19.81
2022-08-24T04:38:02.395Z,19.78
2022-08-24T04:41:31.373Z,19.82
2022-08-24T04:45:00.489Z,19.86
2022-08-24T04:48:30.725Z,19.87
2022-08-24T04:51:58.615Z,19.89
2022-08-24T04:55:25.872Z,19.90
2022-08-24T04:58:53.995Z,19.87
2022-08-24T05:02:23.024Z,19.88
2022-08-24T05:05:53.438Z,19.91
2022-08-24T05:09:20.078Z,19.94
2022-08-24T05:12:47.451Z,19.97
2022-08-24T05:16:19.317Z,19.99
2022-08-24T05:19:46.059Z,20.01
2022-08-24T05:23:13.690Z,20.03
2022-08-24T05:26:42.254Z,20.03
2022-08-24T05:30:12.604Z,20.04
2022-08-24T05:33:39.770Z,20.06
2022-08-24T05:37:06.988Z,20.15
2022-08-24T05:41:08.899Z,20.24
2022-08-24T05:44:37.515Z,20.28
2022-08-24T05:48:04.687Z,20.33
2022-08-24T05:52:10.463Z,20.43
2022-08-24T13:31:33.531Z,32.51
2022-08-24T13:35:38.277Z,32.68
2022-08-24T13:39:22.107Z,32.88
2022-08-24T13:43:12.653Z,33.04
2022-08-24T13:46:55.426Z,33.20
2022-08-24T13:50:39.655Z,33.35
2022-08-24T13:54:23.667Z,33.23
2022-08-24T13:58:10.079Z,33.25
2022-08-24T14:01:47.683Z,33.24
2022-08-24T14:05:34.528Z,33.35
2022-08-24T14:09:17.159Z,33.56
2022-08-24T14:12:49.433Z,33.76
2022-08-24T14:16:53.466Z,33.90
2022-08-24T14:20:39.044Z,34.09
2022-08-24T14:24:11.036Z,34.04
2022-08-24T14:27:45.553Z,33.66
2022-08-24T14:31:28.570Z,33.33
2022-08-24T14:35:05.234Z,32.97
2022-08-24T14:38:56.572Z,32.58
2022-08-24T14:42:34.891Z,32.25
2022-08-24T14:46:13.115Z,31.97
2022-08-24T14:49:48.940Z,31.67
2022-08-24T14:53:41.597Z,31.44
2022-08-24T14:57:32.261Z,31.24
2022-08-24T15:01:30.698Z,31.13
2022-08-24T15:05:07.350Z,31.01
2022-08-24T15:08:43.341Z,30.92
2022-08-24T15:12:21.986Z,30.88
2022-08-24T15:16:18.608Z,30.78
2022-08-24T15:19:59.247Z,30.72
2022-08-24T15:23:40.119Z,30.71
2022-08-24T15:27:16.492Z,30.69
2022-08-24T15:30:54.382Z,30.61
2022-08-24T15:34:21.514Z,30.48
2022-08-24T15:37:49.237Z,30.34
2022-08-24T15:41:20.687Z,30.16
2022-08-24T15:44:50.766Z,30.01
2022-08-24T15:48:20.582Z,29.89
2022-08-24T15:51:53.771Z,29.75
2022-08-24T15:55:35.558Z,29.59
2022-08-24T15:59:12.138Z,29.45
2022-08-24T16:02:41.041Z,29.30
2022-08-24T16:06:40.114Z,29.23
2022-08-24T16:10:12.104Z,29.09
2022-08-24T16:13:43.621Z,28.98
2022-08-24T16:17:32.578Z,28.85
2022-08-24T16:21:02.127Z,28.73
2022-08-24T16:24:34.227Z,28.60
2022-08-24T16:28:07.845Z,28.49
2022-08-24T16:31:53.102Z,28.35
2022-08-24T16:35:24.186Z,28.21
2022-08-24T16:38:54.620Z,28.10
2022-08-24T16:42:26.027Z,28.01
2022-08-24T16:45:52.949Z,27.93
2022-08-24T16:49:24.345Z,27.85
2022-08-24T16:52:55.644Z,27.79
2022-08-24T16:56:23.310Z,27.70
2022-08-24T16:59:51.869Z,27.61
2022-08-24T17:03:20.850Z,27.51
2022-08-24T17:06:50.701Z,27.40
2022-08-24T17:10:21.813Z,27.30
2022-08-24T17:13:50.547Z,27.20
2022-08-24T17:17:22.710Z,27.10
2022-08-24T17:20:49.665Z,26.98
2022-08-24T17:24:22.143Z,26.84
2022-08-24T17:27:49.171Z,26.71
2022-08-24T17:31:17.337Z,26.59
2022-08-24T17:34:47.987Z,26.49
2022-08-24T17:38:15.539Z,26.40
2022-08-24T17:41:42.399Z,26.31
2022-08-24T17:45:13.241Z,26.24
2022-08-24T17:48:39.994Z,26.19
2022-08-24T17:52:07.567Z,26.13
2022-08-24T17:55:35.103Z,26.04
2022-08-24T17:59:20.106Z,25.97
2022-08-24T18:02:52.164Z,25.89
2022-08-24T18:06:19.852Z,25.81
2022-08-24T18:09:49.913Z,25.69
2022-08-24T18:13:17.073Z,25.67
2022-08-24T18:16:44.374Z,25.61
2022-08-24T18:20:25.783Z,25.53
2022-08-24T18:23:54.585Z,25.46
2022-08-24T18:27:26.758Z,25.39
2022-08-24T18:30:56.886Z,25.34
2022-08-24T18:34:31.010Z,25.30
2022-08-24T18:37:58.310Z,25.27
2022-08-24T18:41:31.569Z,25.21
2022-08-24T18:45:01.486Z,25.19
2022-08-24T18:48:36.836Z,25.16
2022-08-24T18:52:16.692Z,25.12
2022-08-24T18:55:46.412Z,25.07
2022-08-24T18:59:15.486Z,25.03
2022-08-24T19:02:43.492Z,24.97
2022-08-24T19:06:14.131Z,24.90
2022-08-24T19:09:41.593Z,24.84
2022-08-24T19:13:15.615Z,24.76
2022-08-24T19:16:42.520Z,24.69
2022-08-24T19:20:14.528Z,24.63
2022-08-24T19:23:44.321Z,24.60
2022-08-24T19:27:11.522Z,24.57
2022-08-24T19:30:42.493Z,24.53
2022-08-24T19:34:11.851Z,24.49
2022-08-24T19:37:42.382Z,24.45
2022-08-24T19:41:12.702Z,24.40
2022-08-24T19:44:58.741Z,24.39
2022-08-24T19:48:28.031Z,24.36
2022-08-24T19:51:59.784Z,24.31
2022-08-24T19:55:29.174Z,24.26
2022-08-24T19:59:18.943Z,24.21
2022-08-24T20:02:52.631Z,24.13
2022-08-24T20:06:33.597Z,24.05
2022-08-24T20:10:12.280Z,23.97
2022-08-24T20:13:42.499Z,23.90
2022-08-24T20:17:13.686Z,23.83
2022-08-24T20:20:42.347Z,23.78
2022-08-24T20:24:10.770Z,23.73
2022-08-24T20:27:42.173Z,23.69
2022-08-24T20:31:12.809Z,23.67
2022-08-24T20:34:43.323Z,23.66
2022-08-24T20:38:13.703Z,23.64
2022-08-24T20:41:41.676Z,23.61
2022-08-24T20:45:14.335Z,23.59
2022-08-24T20:48:55.427Z,23.58
2022-08-24T20:52:26.865Z,23.57
2022-08-24T20:55:55.208Z,23.55
2022-08-24T20:59:25.443Z,23.52
2022-08-24T21:02:53.144Z,23.45
2022-08-24T21:06:21.574Z,23.39
2022-08-24T21:09:50.512Z,23.30
2022-08-24T21:13:18.477Z,23.21
2022-08-24T21:16:46.382Z,23.12
2022-08-24T21:20:15.422Z,23.05
2022-08-24T21:23:43.004Z,23.00
2022-08-24T21:27:10.427Z,22.96
2022-08-24T21:30:37.917Z,22.92
2022-08-24T21:34:22.715Z,22.90
2022-08-24T21:37:51.715Z,22.87
2022-08-24T21:41:21.744Z,22.86
2022-08-24T21:44:51.059Z,22.84
2022-08-24T21:48:18.115Z,22.82
2022-08-24T21:51:45.150Z,22.80
2022-08-24T21:55:15.194Z,22.77
2022-08-24T21:58:42.866Z,22.75
2022-08-24T22:02:11.182Z,22.74
2022-08-24T22:05:41.101Z,22.74
2022-08-24T22:09:09.312Z,22.75
2022-08-24T22:12:37.322Z,22.75
2022-08-24T22:16:04.713Z,22.76
2022-08-24T22:19:34.684Z,22.76
2022-08-24T22:23:06.355Z,22.74
2022-08-24T22:26:34.860Z,22.71
2022-08-24T22:30:02.883Z,22.69
2022-08-24T22:33:35.162Z,22.64
2022-08-24T22:37:05.694Z,22.62
2022-08-24T22:40:33.335Z,22.60
2022-08-24T22:44:18.335Z,22.58
2022-08-24T22:47:45.912Z,22.58
2022-08-24T22:51:15.111Z,22.57
2022-08-24T22:54:42.779Z,22.56
2022-08-24T22:58:09.791Z,22.53
2022-08-24T23:01:40.559Z,22.53
2022-08-24T23:05:10.355Z,22.53
2022-08-24T23:08:41.865Z,22.55
2022-08-24T23:12:10.684Z,22.56
2022-08-24T23:15:37.880Z,22.54
2022-08-24T23:19:23.293Z,22.51
2022-08-24T23:22:54.598Z,22.48
2022-08-24T23:26:22.432Z,22.45
2022-08-24T23:29:52.265Z,22.43
2022-08-24T23:33:19.807Z,22.40
2022-08-24T23:36:50.345Z,22.37
2022-08-24T23:40:20.624Z,22.35
2022-08-24T23:43:48.252Z,22.32
2022-08-24T23:47:15.429Z,22.25
2022-08-24T23:50:45.936Z,22.15
2022-08-24T23:54:15.101Z,22.09
2022-08-24T23:57:42.560Z,22.02
